地図

経路データ

SID SEASON NUMBER BASIN SUBBASIN NAME ISO_TIME NATURE LAT LON WMO_WIND WMO_PRES WMO_AGENCY TRACK_TYPE DIST2LAND LANDFALL IFLAG USA_AGENCY USA_ATCF_ID USA_LAT USA_LON USA_RECORD USA_STATUS USA_WIND USA_PRES USA_SSHS USA_R34_NE USA_R34_SE USA_R34_SW USA_R34_NW USA_R50_NE USA_R50_SE USA_R50_SW USA_R50_NW USA_R64_NE USA_R64_SE USA_R64_SW USA_R64_NW USA_POCI USA_ROCI USA_RMW USA_EYE TOKYO_LAT TOKYO_LON TOKYO_GRADE TOKYO_WIND TOKYO_PRES TOKYO_R50_DIR TOKYO_R50_LONG TOKYO_R50_SHORT TOKYO_R30_DIR TOKYO_R30_LONG TOKYO_R30_SHORT TOKYO_LAND CMA_LAT CMA_LON CMA_CAT CMA_WIND CMA_PRES HKO_LAT HKO_LON HKO_CAT HKO_WIND HKO_PRES NEWDELHI_LAT NEWDELHI_LON NEWDELHI_GRADE NEWDELHI_WIND NEWDELHI_PRES NEWDELHI_CI NEWDELHI_DP NEWDELHI_POCI REUNION_LAT REUNION_LON REUNION_TYPE REUNION_WIND REUNION_PRES REUNION_TNUM REUNION_CI REUNION_RMW REUNION_R34_NE REUNION_R34_SE REUNION_R34_SW REUNION_R34_NW REUNION_R50_NE REUNION_R50_SE REUNION_R50_SW REUNION_R50_NW REUNION_R64_NE REUNION_R64_SE REUNION_R64_SW REUNION_R64_NW BOM_LAT BOM_LON BOM_TYPE BOM_WIND BOM_PRES BOM_TNUM BOM_CI BOM_RMW BOM_R34_NE BOM_R34_SE BOM_R34_SW BOM_R34_NW BOM_R50_NE BOM_R50_SE BOM_R50_SW BOM_R50_NW BOM_R64_NE BOM_R64_SE BOM_R64_SW BOM_R64_NW BOM_ROCI BOM_POCI BOM_EYE BOM_POS_METHOD BOM_PRES_METHOD NADI_LAT NADI_LON NADI_CAT NADI_WIND NADI_PRES WELLINGTON_LAT WELLINGTON_LON WELLINGTON_WIND WELLINGTON_PRES DS824_LAT DS824_LON DS824_STAGE DS824_WIND DS824_PRES TD9636_LAT TD9636_LON TD9636_STAGE TD9636_WIND TD9636_PRES TD9635_LAT TD9635_LON TD9635_WIND TD9635_PRES TD9635_ROCI NEUMANN_LAT NEUMANN_LON NEUMANN_CLASS NEUMANN_WIND NEUMANN_PRES MLC_LAT MLC_LON MLC_CLASS MLC_WIND MLC_PRES USA_GUST BOM_GUST BOM_GUST_PER REUNION_GUST REUNION_GUST_PER USA_SEAHGT USA_SEARAD_NE USA_SEARAD_SE USA_SEARAD_SW USA_SEARAD_NW STORM_SPEED STORM_DIR
1970242N22124 1970 98 WP MM NOT_NAMED 1970-08-29 18:00:00 TS 22.3000 124.400 main 320 292 __O___________ -1 22.3000 124.400 1 23 1001 8 333
1970242N22124 1970 98 WP MM NOT_NAMED 1970-08-29 21:00:00 TS 22.6550 124.210 main 290 266 __P___________ -1 22.6550 124.210 1 23 1001 8 332
1970242N22124 1970 98 WP MM NOT_NAMED 1970-08-30 00:00:00 TS 23.0000 124.000 main 266 235 __O___________ -1 23.0000 124.000 1 23 1001 8 328
1970242N22124 1970 98 WP MM NOT_NAMED 1970-08-30 03:00:00 TS 23.3225 123.757 main 235 191 __P___________ -1 23.3225 123.757 1 23 1000 8 323
1970242N22124 1970 98 WP MM NOT_NAMED 1970-08-30 06:00:00 TS 23.6000 123.500 main 191 153 __O___________ -1 23.6000 123.500 1 23 1000 7 317
1970242N22124 1970 98 WP MM NOT_NAMED 1970-08-30 09:00:00 TS 23.8375 123.235 main 153 124 __P___________ -1 23.8375 123.235 1 21 1000 6 311
1970242N22124 1970 98 WP MM NOT_NAMED 1970-08-30 12:00:00 TS 24.0000 123.000 main 124 101 __O___________ -1 24.0000 123.000 0 19 1000 4 304
1970242N22124 1970 98 WP MM NOT_NAMED 1970-08-30 15:00:00 TS 24.0799 122.835 main 101 92 __P___________ -1 24.0799 122.835 0 19 1000 3 290
1970242N22124 1970 98 WP MM NOT_NAMED 1970-08-30 18:00:00 TS 24.1000 122.700 main 92 83 __O___________ -1 24.1000 122.700 0 19 1000 3 281
1970242N22124 1970 98 WP MM NOT_NAMED 1970-08-30 21:00:00 TS 24.1300 122.558 main 83 67 __P___________ -1 24.1300 122.558 0 19 1000 3 270
1970242N22124 1970 98 WP MM NOT_NAMED 1970-08-31 00:00:00 TS 24.1000 122.400 main 67 60 __O___________ -1 24.1000 122.400 0 19 1000 4 245
1970242N22124 1970 98 WP MM NOT_NAMED 1970-08-31 03:00:00 TS 23.9651 122.170 main 60 46 __P___________ -1 23.9651 122.170 0 19 999 5 230
1970242N22124 1970 98 WP MM NOT_NAMED 1970-08-31 06:00:00 TS 23.8000 122.000 main 50 50 __O___________ -1 23.8000 122.000 0 19 999 3 209
1970242N22124 1970 98 WP MM NOT_NAMED 1970-08-31 09:00:00 TS 23.6850 122.005 main 50 50 __P___________ -1 23.6850 122.005 0 19 999 2 155
1970242N22124 1970 98 WP MM NOT_NAMED 1970-08-31 12:00:00 TS 23.6000 122.100 main 62 62 __O___________ -1 23.6000 122.100 0 19 999 2 131
1970242N22124 1970 98 WP MM NOT_NAMED 1970-08-31 15:00:00 TS 23.5350 122.193 main 74 74 __P___________ -1 23.5350 122.193 0 19 998 2 119
1970242N22124 1970 98 WP MM NOT_NAMED 1970-08-31 18:00:00 TS 23.5000 122.300 main 84 84 __O___________ -1 23.5000 122.300 0 19 998 2 104
1970242N22124 1970 98 WP MM NOT_NAMED 1970-08-31 21:00:00 TS 23.4850 122.408 main 94 94 __P___________ -1 23.4850 122.408 0 21 998 2 90
1970242N22124 1970 98 WP MM NOT_NAMED 1970-09-01 00:00:00 TS 23.5000 122.500 main 104 104 __O___________ -1 23.5000 122.500 1 23 998 2 70
1970242N22124 1970 98 WP MM NOT_NAMED 1970-09-01 03:00:00 TS 23.5425 122.580 main 114 112 __P___________ -1 23.5425 122.580 1 23 997 1 40
1970242N22124 1970 98 WP MM NOT_NAMED 1970-09-01 06:00:00 TS 23.6000 122.600 main 112 101 __O___________ -1 23.6000 122.600 1 23 997 1 339
1970242N22124 1970 98 WP MM NOT_NAMED 1970-09-01 09:00:00 TS 23.6650 122.538 main 101 91 __P___________ -1 23.6650 122.538 1 23 997 2 299
1970242N22124 1970 98 WP MM NOT_NAMED 1970-09-01 12:00:00 TS 23.7000 122.400 main 91 71 __O___________ -1 23.7000 122.400 1 23 997 3 273
1970242N22124 1970 98 WP MM NOT_NAMED 1970-09-01 15:00:00 TS 23.6801 122.200 main 71 52 __P___________ -1 23.6801 122.200 1 21 997 4 255
1970242N22124 1970 98 WP MM NOT_NAMED 1970-09-01 18:00:00 TS 23.6000 122.000 main 52 42 __O___________ -1 23.6000 122.000 0 19 998 3 236
1970242N22124 1970 98 WP MM NOT_NAMED 1970-09-01 21:00:00 TS 23.4949 121.900 main 46 40 __P___________ -1 23.4949 121.900 0 19 998 4 211
1970242N22124 1970 98 WP MM NOT_NAMED 1970-09-02 00:00:00 TS 23.3000 121.800 main 40 23 __O___________ -1 23.3000 121.800 0 19 999 6 206
1970242N22124 1970 98 WP MM NOT_NAMED 1970-09-02 03:00:00 TS 22.9576 121.607 main 23 23 __P___________ -1 22.9576 121.607 0 19 999 8 208
1970242N22124 1970 98 WP MM NOT_NAMED 1970-09-02 06:00:00 TS 22.6000 121.400 main 38 32 __O___________ -1 22.6000 121.400 0 19 999 7 210
1970242N22124 1970 98 WP MM NOT_NAMED 1970-09-02 09:00:00 TS 22.3849 121.250 main 38 20 __P___________ -1 22.3849 121.250 0 19 1000 5 215
1970242N22124 1970 98 WP MM NOT_NAMED 1970-09-02 12:00:00 TS 22.2000 121.100 main 20 0 __O___________ -1 22.2000 121.100 0 19 1001 6 218
1970242N22124 1970 98 WP MM NOT_NAMED 1970-09-02 15:00:00 TS 21.9501 120.877 main 0 0 __P___________ -1 21.9501 120.877 0 19 1001 6 217
1970242N22124 1970 98 WP MM NOT_NAMED 1970-09-02 18:00:00 TS 21.7000 120.700 main 22 22 __O___________ -1 21.7000 120.700 0 19 1001 5 206
1970242N22124 1970 98 WP MM NOT_NAMED 1970-09-02 21:00:00 TS 21.4774 120.625 main 45 45 __P___________ -1 21.4774 120.625 0 19 1001 4 0
1970242N22124 1970 98 WP MM NOT_NAMED 1970-09-03 00:00:00 TS 21.3000 120.700 main 67 67 __O___________ -1 21.3000 120.700 0 19 1002 5 134
1970242N22124 1970 98 WP MM NOT_NAMED 1970-09-03 03:00:00 TS 21.1627 120.978 main 78 78 __P___________ -1 21.1627 120.978 0 19 1002 6 110
1970242N22124 1970 98 WP MM NOT_NAMED 1970-09-03 06:00:00 TS 21.1000 121.300 main 98 98 __O___________ -1 21.1000 121.300 0 19 1002 5 95
1970242N22124 1970 98 WP MM NOT_NAMED 1970-09-03 09:00:00 TS 21.1199 121.510 main 108 106 __P___________ -1 21.1199 121.510 0 19 1002 3 70
1970242N22124 1970 98 WP MM NOT_NAMED 1970-09-03 12:00:00 TS 21.2000 121.600 main 106 98 __O___________ -1 21.2000 121.600 0 19 1002 2 8
1970242N22124 1970 98 WP MM NOT_NAMED 1970-09-03 15:00:00 TS 21.3450 121.545 main 91 76 __P___________ -1 21.3450 121.545 0 21 1001 3 317
1970242N22124 1970 98 WP MM NOT_NAMED 1970-09-03 18:00:00 TS 21.4000 121.400 main 76 69 __O___________ -1 21.4000 121.400 1 23 1000 3 246
1970242N22124 1970 98 WP MM NOT_NAMED 1970-09-03 21:00:00 TS 21.2100 121.212 main 84 84 __P___________ -1 21.2100 121.212 1 21 1000 6 209
1970242N22124 1970 98 WP MM NOT_NAMED 1970-09-04 00:00:00 TS 20.9000 121.100 main 113 113 __O___________ -1 20.9000 121.100 0 19 1001 6 182
1970242N22124 1970 98 WP MM NOT_NAMED 1970-09-04 03:00:00 TS 20.5926 121.188 main 148 148 __P___________ -1 20.5926 121.188 0 19 1001 7 155
1970242N22124 1970 98 WP MM NOT_NAMED 1970-09-04 06:00:00 TS 20.3000 121.400 main 186 __O___________ -1 20.3000 121.400 0 19 1002 7 146

デジタル台風データ・検索

IBTrACS Databaseについて

本データベースは、米国NOAAが公開する1842年以降の世界の熱帯低気圧のベストトラックデータアーカイブInternational Best Track Archive for Climate Stewardship (IBTrACS)を、ウェブで閲覧しやすい形式に変換したものです。

最終更新日:2021-10-21